PWSweather.com
Personal Weather Stations
Station Observations
WXFCSTR1
Meadowcroft Subdivision, Sumter, SC 29154

Meadowcroft SubdivisionSumter, SC 29154

Lat: 33.887835, Lon: -80.411964

Elevation: 100

Station Type: Ambient Weather WS-2080

Latest ConditionsUpdated 8:30:00 PM EDT Monday, Jul 28, 2014
Currently Today's Max Today's Min Today's Average
Temperature 87.3°F30.7°C 94.7°F34.8°C 78.3°F25.7°C 85.6°F29.8°C
Dew Point 63.4°F17.4°C 76.3°F24.6°C 63.3°F17.4°C 72.2°F22.3°C
Winds 1.7 mph W2.7 kmh W 11.7 mph SW18.8 kmh SW - 3.8 mph 6.1 kmh
Wind Gusts 5.1 mph8.2 kmh 19.3 mph31.1 kmh - -
Humidity 45% 85% 41% 66%
Pressure 29.79 in1008.8 mb 29.87 in1011.5 mb 29.73 in1006.8 mb -
Hour Temp Dew Point Humidity Winds Wind Gusts Pressure Precip Precip Rate Daily Precip Total
08:30 PM 87.3°F30.7°C 63.4°F17.4°C 45% 1.7 mph W2.7 kmh W 5.1 mph8.2 kmh 29.79 in1008.8 mb 0.00 in0.0 mm 0.00 in/hr0.0 mm/hr 0.00 in0.0 mm
08:20 PM 88.0°F31.1°C 63.3°F17.4°C 44% 1.2 mph W1.9 kmh W 4.2 mph6.8 kmh 29.78 in1008.5 mb 0.00 in0.0 mm 0.00 in/hr0.0 mm/hr 0.00 in0.0 mm
08:10 PM 88.5°F31.4°C 63.8°F17.7°C 44% 0.9 mph N1.4 kmh N 3.0 mph4.8 kmh 29.78 in1008.5 mb 0.00 in0.0 mm 0.00 in/hr0.0 mm/hr 0.00 in0.0 mm
08:00 PM 89.6°F32.0°C 63.5°F17.5°C 42% Calm Calm 3.0 mph4.8 kmh 29.77 in1008.1 mb 0.00 in0.0 mm 0.00 in/hr0.0 mm/hr 0.00 in0.0 mm
07:50 PM 90.1°F32.3°C 64.6°F18.1°C 43% 2.9 mph NW4.7 kmh NW 5.1 mph8.2 kmh 29.77 in1008.1 mb 0.00 in0.0 mm 0.00 in/hr0.0 mm/hr 0.00 in0.0 mm
07:40 PM 90.5°F32.5°C 65.6°F18.7°C 44% 0.9 mph WNW1.4 kmh WNW 3.0 mph4.8 kmh 29.77 in1008.1 mb 0.00 in0.0 mm 0.00 in/hr0.0 mm/hr 0.00 in0.0 mm
07:30 PM 91.2°F32.9°C 65.6°F18.7°C 43% 1.1 mph W1.8 kmh W 4.2 mph6.8 kmh 29.76 in1007.8 mb 0.00 in0.0 mm 0.00 in/hr0.0 mm/hr 0.00 in0.0 mm
07:20 PM 92.2°F33.4°C 66.5°F19.2°C 43% 2.5 mph WSW4.0 kmh WSW 8.0 mph12.9 kmh 29.76 in1007.8 mb 0.00 in0.0 mm 0.00 in/hr0.0 mm/hr 0.00 in0.0 mm
07:10 PM 92.8°F33.8°C 66.4°F19.1°C 42% 2.5 mph WSW4.0 kmh WSW 5.1 mph8.2 kmh 29.76 in1007.8 mb 0.00 in0.0 mm 0.00 in/hr0.0 mm/hr 0.00 in0.0 mm
07:00 PM 93.2°F34.0°C 66.7°F19.3°C 42% 3.8 mph WSW6.1 kmh WSW 7.1 mph11.4 kmh 29.76 in1007.8 mb 0.00 in0.0 mm 0.00 in/hr0.0 mm/hr 0.00 in0.0 mm
06:50 PM 93.0°F33.9°C 66.5°F19.2°C 42% 2.9 mph NW4.7 kmh NW 4.2 mph6.8 kmh 29.75 in1007.5 mb 0.00 in0.0 mm 0.00 in/hr0.0 mm/hr 0.00 in0.0 mm
06:40 PM 92.7°F33.7°C 66.2°F19.0°C 42% 2.9 mph WNW4.7 kmh WNW 6.0 mph9.7 kmh 29.75 in1007.5 mb 0.00 in0.0 mm 0.00 in/hr0.0 mm/hr 0.00 in0.0 mm
06:30 PM 93.4°F34.1°C 66.2°F19.0°C 41% 7.7 mph WSW12.4 kmh WSW 11.0 mph17.7 kmh 29.74 in1007.1 mb 0.00 in0.0 mm 0.00 in/hr0.0 mm/hr 0.00 in0.0 mm
06:20 PM 93.9°F34.4°C 67.3°F19.6°C 42% 3.9 mph W6.3 kmh W 8.0 mph12.9 kmh 29.73 in1006.8 mb 0.00 in0.0 mm 0.00 in/hr0.0 mm/hr 0.00 in0.0 mm
06:10 PM 93.7°F34.3°C 67.9°F19.9°C 43% 3.2 mph WSW5.1 kmh WSW 6.0 mph9.7 kmh 29.73 in1006.8 mb 0.00 in0.0 mm 0.00 in/hr0.0 mm/hr 0.00 in0.0 mm
06:00 PM 94.1°F34.5°C 67.5°F19.7°C 42% 4.5 mph W7.2 kmh W 8.0 mph12.9 kmh 29.74 in1007.1 mb 0.00 in0.0 mm 0.00 in/hr0.0 mm/hr 0.00 in0.0 mm
05:50 PM 94.3°F34.6°C 68.3°F20.2°C 43% 3.0 mph W4.8 kmh W 9.2 mph14.8 kmh 29.74 in1007.1 mb 0.00 in0.0 mm 0.00 in/hr0.0 mm/hr 0.00 in0.0 mm
05:40 PM 93.9°F34.4°C 68.0°F20.0°C 43% 4.3 mph W6.9 kmh W 12.2 mph19.6 kmh 29.75 in1007.5 mb 0.00 in0.0 mm 0.00 in/hr0.0 mm/hr 0.00 in0.0 mm
05:30 PM 94.4°F34.7°C 67.8°F19.9°C 42% 6.5 mph NW10.5 kmh NW 10.1 mph16.3 kmh 29.74 in1007.1 mb 0.00 in0.0 mm 0.00 in/hr0.0 mm/hr 0.00 in0.0 mm
05:20 PM 94.6°F34.8°C 68.7°F20.4°C 43% 7.6 mph NW12.2 kmh NW 11.0 mph17.7 kmh 29.74 in1007.1 mb 0.00 in0.0 mm 0.00 in/hr0.0 mm/hr 0.00 in0.0 mm
05:10 PM 93.9°F34.4°C 69.4°F20.8°C 45% 3.8 mph S6.1 kmh S 7.1 mph11.4 kmh 29.74 in1007.1 mb 0.00 in0.0 mm 0.00 in/hr0.0 mm/hr 0.00 in0.0 mm
05:00 PM 94.7°F34.8°C 68.8°F20.4°C 43% 9.4 mph WSW15.1 kmh WSW 15.2 mph24.5 kmh 29.74 in1007.1 mb 0.00 in0.0 mm 0.00 in/hr0.0 mm/hr 0.00 in0.0 mm
04:50 PM 94.5°F34.7°C 68.5°F20.3°C 43% 7.2 mph SSW11.6 kmh SSW 14.3 mph23.0 kmh 29.74 in1007.1 mb 0.00 in0.0 mm 0.00 in/hr0.0 mm/hr 0.00 in0.0 mm
04:40 PM 94.3°F34.6°C 68.4°F20.2°C 43% 8.9 mph WSW14.3 kmh WSW 15.2 mph24.5 kmh 29.74 in1007.1 mb 0.00 in0.0 mm 0.00 in/hr0.0 mm/hr 0.00 in0.0 mm
04:30 PM 94.3°F34.6°C 68.3°F20.2°C 43% 7.3 mph SW11.7 kmh SW 19.3 mph31.1 kmh 29.75 in1007.5 mb 0.00 in0.0 mm 0.00 in/hr0.0 mm/hr 0.00 in0.0 mm
04:20 PM 94.3°F34.6°C 69.0°F20.6°C 44% 8.9 mph SW14.3 kmh SW 19.3 mph31.1 kmh 29.75 in1007.5 mb 0.00 in0.0 mm 0.00 in/hr0.0 mm/hr 0.00 in0.0 mm
04:10 PM 94.1°F34.5°C 68.9°F20.5°C 44% 11.7 mph SW18.8 kmh SW 15.2 mph24.5 kmh 29.75 in1007.5 mb 0.00 in0.0 mm 0.00 in/hr0.0 mm/hr 0.00 in0.0 mm
04:00 PM 94.3°F34.6°C 69.0°F20.6°C 44% 8.5 mph W13.7 kmh W 13.1 mph21.1 kmh 29.76 in1007.8 mb 0.00 in0.0 mm 0.00 in/hr0.0 mm/hr 0.00 in0.0 mm
03:50 PM 94.3°F34.6°C 69.7°F20.9°C 45% 8.2 mph WNW13.2 kmh WNW 16.1 mph25.9 kmh 29.76 in1007.8 mb 0.00 in0.0 mm 0.00 in/hr0.0 mm/hr 0.00 in0.0 mm
03:40 PM 94.0°F34.4°C 70.1°F21.2°C 46% 6.5 mph W10.5 kmh W 10.1 mph16.3 kmh 29.76 in1007.8 mb 0.00 in0.0 mm 0.00 in/hr0.0 mm/hr 0.00 in0.0 mm
03:30 PM 93.4°F34.1°C 71.4°F21.9°C 49% 11.7 mph SW18.8 kmh SW 18.2 mph29.3 kmh 29.76 in1007.8 mb 0.00 in0.0 mm 0.00 in/hr0.0 mm/hr 0.00 in0.0 mm
03:20 PM 93.4°F34.1°C 73.7°F23.2°C 53% 4.0 mph W6.4 kmh W 5.1 mph8.2 kmh 29.77 in1008.1 mb 0.00 in0.0 mm 0.00 in/hr0.0 mm/hr 0.00 in0.0 mm
03:10 PM 93.4°F34.1°C 73.1°F22.8°C 52% 5.7 mph WSW9.2 kmh WSW 12.2 mph19.6 kmh 29.77 in1008.1 mb 0.00 in0.0 mm 0.00 in/hr0.0 mm/hr 0.00 in0.0 mm
03:00 PM 93.4°F34.1°C 75.9°F24.4°C 57% 2.6 mph W4.2 kmh W 6.0 mph9.7 kmh 29.77 in1008.1 mb 0.00 in0.0 mm 0.00 in/hr0.0 mm/hr 0.00 in0.0 mm
02:50 PM 92.9°F33.8°C 73.8°F23.2°C 54% 8.8 mph NW14.2 kmh NW 15.2 mph24.5 kmh 29.77 in1008.1 mb 0.00 in0.0 mm 0.00 in/hr0.0 mm/hr 0.00 in0.0 mm
02:40 PM 93.2°F34.0°C 73.0°F22.8°C 52% 7.7 mph W12.4 kmh W 12.2 mph19.6 kmh 29.78 in1008.5 mb 0.00 in0.0 mm 0.00 in/hr0.0 mm/hr 0.00 in0.0 mm
02:30 PM 92.5°F33.6°C 73.4°F23.0°C 54% 6.9 mph E11.1 kmh E 12.2 mph19.6 kmh 29.78 in1008.5 mb 0.00 in0.0 mm 0.00 in/hr0.0 mm/hr 0.00 in0.0 mm
02:20 PM 92.1°F33.4°C 73.6°F23.1°C 55% 4.9 mph NW7.9 kmh NW 9.2 mph14.8 kmh 29.78 in1008.5 mb 0.00 in0.0 mm 0.00 in/hr0.0 mm/hr 0.00 in0.0 mm
02:10 PM 91.8°F33.2°C 73.8°F23.2°C 56% 6.8 mph W10.9 kmh W 12.2 mph19.6 kmh 29.79 in1008.8 mb 0.00 in0.0 mm 0.00 in/hr0.0 mm/hr 0.00 in0.0 mm
02:00 PM 91.0°F32.8°C 74.2°F23.4°C 58% 4.1 mph WNW6.6 kmh WNW 11.0 mph17.7 kmh 29.79 in1008.8 mb 0.00 in0.0 mm 0.00 in/hr0.0 mm/hr 0.00 in0.0 mm
01:50 PM 91.4°F33.0°C 74.0°F23.3°C 57% 8.9 mph W14.3 kmh W 18.2 mph29.3 kmh 29.80 in1009.1 mb 0.00 in0.0 mm 0.00 in/hr0.0 mm/hr 0.00 in0.0 mm
01:40 PM 90.9°F32.7°C 74.0°F23.3°C 58% 5.8 mph W9.3 kmh W 13.1 mph21.1 kmh 29.80 in1009.1 mb 0.00 in0.0 mm 0.00 in/hr0.0 mm/hr 0.00 in0.0 mm
01:30 PM 90.5°F32.5°C 73.7°F23.2°C 58% 3.9 mph WNW6.3 kmh WNW 9.2 mph14.8 kmh 29.80 in1009.1 mb 0.00 in0.0 mm 0.00 in/hr0.0 mm/hr 0.00 in0.0 mm
01:20 PM 90.0°F32.2°C 73.7°F23.2°C 59% 6.9 mph SW11.1 kmh SW 14.3 mph23.0 kmh 29.80 in1009.1 mb 0.00 in0.0 mm 0.00 in/hr0.0 mm/hr 0.00 in0.0 mm
01:10 PM 89.6°F32.0°C 73.4°F23.0°C 59% 6.9 mph SW11.1 kmh SW 11.0 mph17.7 kmh 29.80 in1009.1 mb 0.00 in0.0 mm 0.00 in/hr0.0 mm/hr 0.00 in0.0 mm
01:00 PM 89.6°F32.0°C 73.9°F23.3°C 60% 6.3 mph SW10.1 kmh SW 17.3 mph27.8 kmh 29.81 in1009.5 mb 0.00 in0.0 mm 0.00 in/hr0.0 mm/hr 0.00 in0.0 mm
12:50 PM 89.2°F31.8°C 74.0°F23.3°C 61% 5.7 mph NW9.2 kmh NW 11.0 mph17.7 kmh 29.82 in1009.8 mb 0.00 in0.0 mm 0.00 in/hr0.0 mm/hr 0.00 in0.0 mm
12:40 PM 88.9°F31.6°C 73.7°F23.2°C 61% 6.9 mph S11.1 kmh S 9.2 mph14.8 kmh 29.82 in1009.8 mb 0.00 in0.0 mm 0.00 in/hr0.0 mm/hr 0.00 in0.0 mm
12:30 PM 88.5°F31.4°C 74.8°F23.8°C 64% 6.5 mph SSW10.5 kmh SSW 12.2 mph19.6 kmh 29.82 in1009.8 mb 0.00 in0.0 mm 0.00 in/hr0.0 mm/hr 0.00 in0.0 mm
12:20 PM 88.0°F31.1°C 74.7°F23.7°C 65% 4.5 mph SW7.2 kmh SW 11.0 mph17.7 kmh 29.83 in1010.2 mb 0.00 in0.0 mm 0.00 in/hr0.0 mm/hr 0.00 in0.0 mm
12:10 PM 87.6°F30.9°C 75.3°F24.1°C 67% 5.1 mph SW8.2 kmh SW 9.2 mph14.8 kmh 29.82 in1009.8 mb 0.00 in0.0 mm 0.00 in/hr0.0 mm/hr 0.00 in0.0 mm
12:00 PM 87.1°F30.6°C 75.2°F24.0°C 68% 7.4 mph WNW11.9 kmh WNW 13.1 mph21.1 kmh 29.83 in1010.2 mb 0.00 in0.0 mm 0.00 in/hr0.0 mm/hr 0.00 in0.0 mm
11:50 AM 86.5°F30.3°C 75.6°F24.2°C 70% 6.4 mph SW10.3 kmh SW 11.0 mph17.7 kmh 29.83 in1010.2 mb 0.00 in0.0 mm 0.00 in/hr0.0 mm/hr 0.00 in0.0 mm
11:40 AM 86.1°F30.1°C 76.0°F24.4°C 72% 5.1 mph SSW8.2 kmh SSW 9.2 mph14.8 kmh 29.83 in1010.2 mb 0.00 in0.0 mm 0.00 in/hr0.0 mm/hr 0.00 in0.0 mm
11:30 AM 85.5°F29.7°C 76.2°F24.6°C 74% 3.3 mph SW5.3 kmh SW 6.0 mph9.7 kmh 29.82 in1009.8 mb 0.00 in0.0 mm 0.00 in/hr0.0 mm/hr 0.00 in0.0 mm
11:20 AM 84.7°F29.3°C 75.9°F24.4°C 75% 5.2 mph SE8.4 kmh SE 8.0 mph12.9 kmh 29.83 in1010.2 mb 0.00 in0.0 mm 0.00 in/hr0.0 mm/hr 0.00 in0.0 mm
11:10 AM 84.7°F29.3°C 76.3°F24.6°C 76% 5.7 mph W9.2 kmh W 12.2 mph19.6 kmh 29.83 in1010.2 mb 0.00 in0.0 mm 0.00 in/hr0.0 mm/hr 0.00 in0.0 mm
11:00 AM 83.7°F28.7°C 76.1°F24.5°C 78% 4.9 mph WNW7.9 kmh WNW 8.0 mph12.9 kmh 29.83 in1010.2 mb 0.00 in0.0 mm 0.00 in/hr0.0 mm/hr 0.00 in0.0 mm
10:50 AM 82.9°F28.3°C 75.8°F24.3°C 79% 3.5 mph NNW5.6 kmh NNW 7.1 mph11.4 kmh 29.83 in1010.2 mb 0.00 in0.0 mm 0.00 in/hr0.0 mm/hr 0.00 in0.0 mm
10:40 AM 82.9°F28.3°C 75.8°F24.3°C 79% 3.1 mph SW5.0 kmh SW 8.0 mph12.9 kmh 29.83 in1010.2 mb 0.00 in0.0 mm 0.00 in/hr0.0 mm/hr 0.00 in0.0 mm
10:30 AM 82.6°F28.1°C 75.8°F24.3°C 80% 5.7 mph SW9.2 kmh SW 10.1 mph16.3 kmh 29.83 in1010.2 mb 0.00 in0.0 mm 0.00 in/hr0.0 mm/hr 0.00 in0.0 mm
10:20 AM 82.4°F28.0°C 75.6°F24.2°C 80% 5.7 mph WSW9.2 kmh WSW 9.2 mph14.8 kmh 29.83 in1010.2 mb 0.00 in0.0 mm 0.00 in/hr0.0 mm/hr 0.00 in0.0 mm
10:10 AM 82.2°F27.9°C 75.4°F24.1°C 80% 4.0 mph S6.4 kmh S 10.1 mph16.3 kmh 29.83 in1010.2 mb 0.00 in0.0 mm 0.00 in/hr0.0 mm/hr 0.00 in0.0 mm
10:00 AM 81.9°F27.7°C 75.5°F24.2°C 81% 5.0 mph NW8.0 kmh NW 8.0 mph12.9 kmh 29.83 in1010.2 mb 0.00 in0.0 mm 0.00 in/hr0.0 mm/hr 0.00 in0.0 mm
09:50 AM 81.3°F27.4°C 74.9°F23.8°C 81% 2.9 mph NW4.7 kmh NW 8.0 mph12.9 kmh 29.82 in1009.8 mb 0.00 in0.0 mm 0.00 in/hr0.0 mm/hr 0.00 in0.0 mm
09:40 AM 80.8°F27.1°C 74.8°F23.8°C 82% 6.2 mph WNW10.0 kmh WNW 10.1 mph16.3 kmh 29.82 in1009.8 mb 0.00 in0.0 mm 0.00 in/hr0.0 mm/hr 0.00 in0.0 mm
09:30 AM 80.4°F26.9°C 74.4°F23.6°C 82% 3.0 mph SSW4.8 kmh SSW 12.2 mph19.6 kmh 29.82 in1009.8 mb 0.00 in0.0 mm 0.00 in/hr0.0 mm/hr 0.00 in0.0 mm
09:20 AM 79.9°F26.6°C 74.3°F23.5°C 83% 1.9 mph WSW3.1 kmh WSW 7.1 mph11.4 kmh 29.82 in1009.8 mb 0.00 in0.0 mm 0.00 in/hr0.0 mm/hr 0.00 in0.0 mm
09:10 AM 79.7°F26.5°C 74.1°F23.4°C 83% 0.6 mph WSW1.0 kmh WSW 5.1 mph8.2 kmh 29.82 in1009.8 mb 0.00 in0.0 mm 0.00 in/hr0.0 mm/hr 0.00 in0.0 mm
09:00 AM 79.5°F26.4°C 74.3°F23.5°C 84% 2.4 mph SW3.9 kmh SW 7.1 mph11.4 kmh 29.82 in1009.8 mb 0.00 in0.0 mm 0.00 in/hr0.0 mm/hr 0.00 in0.0 mm
08:50 AM 79.3°F26.3°C 74.1°F23.4°C 84% 2.6 mph SW4.2 kmh SW 5.1 mph8.2 kmh 29.82 in1009.8 mb 0.00 in0.0 mm 0.00 in/hr0.0 mm/hr 0.00 in0.0 mm
08:40 AM 79.2°F26.2°C 74.3°F23.5°C 85% 4.0 mph W6.4 kmh W 8.0 mph12.9 kmh 29.83 in1010.2 mb 0.00 in0.0 mm 0.00 in/hr0.0 mm/hr 0.00 in0.0 mm
08:30 AM 79.0°F26.1°C 74.1°F23.4°C 85% 4.4 mph SW7.1 kmh SW 8.0 mph12.9 kmh 29.83 in1010.2 mb 0.00 in0.0 mm 0.00 in/hr0.0 mm/hr 0.00 in0.0 mm
08:20 AM 78.8°F26.0°C 73.9°F23.3°C 85% 1.4 mph WSW2.3 kmh WSW 6.0 mph9.7 kmh 29.82 in1009.8 mb 0.00 in0.0 mm 0.00 in/hr0.0 mm/hr 0.00 in0.0 mm
08:10 AM 78.4°F25.8°C 73.6°F23.1°C 85% 2.6 mph WSW4.2 kmh WSW 5.1 mph8.2 kmh 29.82 in1009.8 mb 0.00 in0.0 mm 0.00 in/hr0.0 mm/hr 0.00 in0.0 mm
08:00 AM 78.3°F25.7°C 73.4°F23.0°C 85% 2.9 mph W4.7 kmh W 6.0 mph9.7 kmh 29.82 in1009.8 mb 0.00 in0.0 mm 0.00 in/hr0.0 mm/hr 0.00 in0.0 mm
07:50 AM 78.5°F25.8°C 73.2°F22.9°C 84% 0.5 mph SW0.8 kmh SW 3.0 mph4.8 kmh 29.82 in1009.8 mb 0.00 in0.0 mm 0.00 in/hr0.0 mm/hr 0.00 in0.0 mm
07:40 AM 78.8°F26.0°C 73.2°F22.9°C 83% 1.1 mph SW1.8 kmh SW 5.1 mph8.2 kmh 29.82 in1009.8 mb 0.00 in0.0 mm 0.00 in/hr0.0 mm/hr 0.00 in0.0 mm
07:30 AM 78.8°F26.0°C 73.2°F22.9°C 83% 0.8 mph S1.3 kmh S 6.0 mph9.7 kmh 29.81 in1009.5 mb 0.00 in0.0 mm 0.00 in/hr0.0 mm/hr 0.00 in0.0 mm
07:20 AM 78.8°F26.0°C 73.2°F22.9°C 83% 0.6 mph SW1.0 kmh SW 4.2 mph6.8 kmh 29.81 in1009.5 mb 0.00 in0.0 mm 0.00 in/hr0.0 mm/hr 0.00 in0.0 mm
07:10 AM 79.0°F26.1°C 73.0°F22.8°C 82% 3.6 mph WSW5.8 kmh WSW 7.1 mph11.4 kmh 29.81 in1009.5 mb 0.00 in0.0 mm 0.00 in/hr0.0 mm/hr 0.00 in0.0 mm
07:00 AM 79.0°F26.1°C 73.1°F22.8°C 82% 1.5 mph SW2.4 kmh SW 5.1 mph8.2 kmh 29.82 in1009.8 mb 0.00 in0.0 mm 0.00 in/hr0.0 mm/hr 0.00 in0.0 mm
06:50 AM 79.2°F26.2°C 73.2°F22.9°C 82% 1.6 mph WSW2.6 kmh WSW 4.2 mph6.8 kmh 29.82 in1009.8 mb 0.00 in0.0 mm 0.00 in/hr0.0 mm/hr 0.00 in0.0 mm
06:40 AM 79.3°F26.3°C 73.0°F22.8°C 81% 1.6 mph SW2.6 kmh SW 3.0 mph4.8 kmh 29.82 in1009.8 mb 0.00 in0.0 mm 0.00 in/hr0.0 mm/hr 0.00 in0.0 mm
06:30 AM 79.3°F26.3°C 73.0°F22.8°C 81% 3.7 mph WSW6.0 kmh WSW 7.1 mph11.4 kmh 29.82 in1009.8 mb 0.00 in0.0 mm 0.00 in/hr0.0 mm/hr 0.00 in0.0 mm
06:20 AM 79.5°F26.4°C 73.2°F22.9°C 81% 0.5 mph WSW0.8 kmh WSW 3.0 mph4.8 kmh 29.82 in1009.8 mb 0.00 in0.0 mm 0.00 in/hr0.0 mm/hr 0.00 in0.0 mm
06:10 AM 79.7°F26.5°C 72.6°F22.6°C 79% 1.9 mph SW3.1 kmh SW 6.0 mph9.7 kmh 29.82 in1009.8 mb 0.00 in0.0 mm 0.00 in/hr0.0 mm/hr 0.00 in0.0 mm
06:00 AM 80.0°F26.7°C 72.9°F22.7°C 79% 2.5 mph SW4.0 kmh SW 5.1 mph8.2 kmh 29.81 in1009.5 mb 0.00 in0.0 mm 0.00 in/hr0.0 mm/hr 0.00 in0.0 mm
05:50 AM 80.2°F26.8°C 72.8°F22.7°C 78% 2.4 mph WSW3.9 kmh WSW 8.0 mph12.9 kmh 29.81 in1009.5 mb 0.00 in0.0 mm 0.00 in/hr0.0 mm/hr 0.00 in0.0 mm
05:40 AM 80.4°F26.9°C 72.9°F22.7°C 78% 2.9 mph S4.7 kmh S 5.1 mph8.2 kmh 29.81 in1009.5 mb 0.00 in0.0 mm 0.00 in/hr0.0 mm/hr 0.00 in0.0 mm
05:30 AM 80.6°F27.0°C 72.7°F22.6°C 77% 2.9 mph S4.7 kmh S 7.1 mph11.4 kmh 29.81 in1009.5 mb 0.00 in0.0 mm 0.00 in/hr0.0 mm/hr 0.00 in0.0 mm
05:20 AM 81.1°F27.3°C 73.2°F22.9°C 77% 4.8 mph WSW7.7 kmh WSW 8.0 mph12.9 kmh 29.82 in1009.8 mb 0.00 in0.0 mm 0.00 in/hr0.0 mm/hr 0.00 in0.0 mm
05:10 AM 81.1°F27.3°C 73.2°F22.9°C 77% 2.8 mph WNW4.5 kmh WNW 7.1 mph11.4 kmh 29.82 in1009.8 mb 0.00 in0.0 mm 0.00 in/hr0.0 mm/hr 0.00 in0.0 mm
05:00 AM 81.3°F27.4°C 73.4°F23.0°C 77% 3.4 mph WNW5.5 kmh WNW 6.0 mph9.7 kmh 29.81 in1009.5 mb 0.00 in0.0 mm 0.00 in/hr0.0 mm/hr 0.00 in0.0 mm
04:50 AM 81.3°F27.4°C 73.4°F23.0°C 77% 4.5 mph SW7.2 kmh SW 9.2 mph14.8 kmh 29.82 in1009.8 mb 0.00 in0.0 mm 0.00 in/hr0.0 mm/hr 0.00 in0.0 mm
04:40 AM 81.3°F27.4°C 73.4°F23.0°C 77% 2.9 mph NW4.7 kmh NW 6.0 mph9.7 kmh 29.82 in1009.8 mb 0.00 in0.0 mm 0.00 in/hr0.0 mm/hr 0.00 in0.0 mm
04:30 AM 81.1°F27.3°C 73.2°F22.9°C 77% 1.7 mph W2.7 kmh W 5.1 mph8.2 kmh 29.82 in1009.8 mb 0.00 in0.0 mm 0.00 in/hr0.0 mm/hr 0.00 in0.0 mm
04:20 AM 81.1°F27.3°C 73.2°F22.9°C 77% 2.1 mph SW3.4 kmh SW 5.1 mph8.2 kmh 29.82 in1009.8 mb 0.00 in0.0 mm 0.00 in/hr0.0 mm/hr 0.00 in0.0 mm
04:10 AM 81.0°F27.2°C 73.5°F23.1°C 78% 0.7 mph SW1.1 kmh SW 4.2 mph6.8 kmh 29.82 in1009.8 mb 0.00 in0.0 mm 0.00 in/hr0.0 mm/hr 0.00 in0.0 mm
04:00 AM 80.8°F27.1°C 73.3°F22.9°C 78% 1.7 mph WNW2.7 kmh WNW 5.1 mph8.2 kmh 29.82 in1009.8 mb 0.00 in0.0 mm 0.00 in/hr0.0 mm/hr 0.00 in0.0 mm
03:50 AM 80.4°F26.9°C 73.3°F22.9°C 79% 2.8 mph W4.5 kmh W 5.1 mph8.2 kmh 29.82 in1009.8 mb 0.00 in0.0 mm 0.00 in/hr0.0 mm/hr 0.00 in0.0 mm
03:40 AM 80.2°F26.8°C 73.1°F22.8°C 79% 1.3 mph SSW2.1 kmh SSW 4.2 mph6.8 kmh 29.82 in1009.8 mb 0.00 in0.0 mm 0.00 in/hr0.0 mm/hr 0.00 in0.0 mm
03:30 AM 80.2°F26.8°C 73.1°F22.8°C 79% 1.6 mph E2.6 kmh E 4.2 mph6.8 kmh 29.82 in1009.8 mb 0.00 in0.0 mm 0.00 in/hr0.0 mm/hr 0.00 in0.0 mm
03:20 AM 80.2°F26.8°C 73.1°F22.8°C 79% 3.4 mph W5.5 kmh W 9.2 mph14.8 kmh 29.82 in1009.8 mb 0.00 in0.0 mm 0.00 in/hr0.0 mm/hr 0.00 in0.0 mm
03:10 AM 80.2°F26.8°C 73.1°F22.8°C 79% 1.2 mph SW1.9 kmh SW 3.0 mph4.8 kmh 29.82 in1009.8 mb 0.00 in0.0 mm 0.00 in/hr0.0 mm/hr 0.00 in0.0 mm
03:00 AM 80.1°F26.7°C 73.0°F22.8°C 79% 1.5 mph WSW2.4 kmh WSW 7.1 mph11.4 kmh 29.82 in1009.8 mb 0.00 in0.0 mm 0.00 in/hr0.0 mm/hr 0.00 in0.0 mm
02:50 AM 80.1°F26.7°C 73.0°F22.8°C 79% 0.9 mph S1.4 kmh S 6.0 mph9.7 kmh 29.82 in1009.8 mb 0.00 in0.0 mm 0.00 in/hr0.0 mm/hr 0.00 in0.0 mm
02:40 AM 80.2°F26.8°C 73.1°F22.8°C 79% 2.0 mph SSW3.2 kmh SSW 4.2 mph6.8 kmh 29.83 in1010.2 mb 0.00 in0.0 mm 0.00 in/hr0.0 mm/hr 0.00 in0.0 mm
02:30 AM 80.5°F26.9°C 73.0°F22.8°C 78% 0.2 mph S0.3 kmh S 3.0 mph4.8 kmh 29.83 in1010.2 mb 0.00 in0.0 mm 0.00 in/hr0.0 mm/hr 0.00 in0.0 mm
02:20 AM 80.6°F27.0°C 73.1°F22.8°C 78% 1.1 mph SSW1.8 kmh SSW 5.1 mph8.2 kmh 29.83 in1010.2 mb 0.00 in0.0 mm 0.00 in/hr0.0 mm/hr 0.00 in0.0 mm
02:10 AM 80.8°F27.1°C 72.9°F22.7°C 77% 1.1 mph WSW1.8 kmh WSW 3.0 mph4.8 kmh 29.83 in1010.2 mb 0.00 in0.0 mm 0.00 in/hr0.0 mm/hr 0.00 in0.0 mm
02:00 AM 81.1°F27.3°C 72.9°F22.7°C 76% 0.6 mph NNW1.0 kmh NNW 2.1 mph3.4 kmh 29.83 in1010.2 mb 0.00 in0.0 mm 0.00 in/hr0.0 mm/hr 0.00 in0.0 mm
01:50 AM 81.3°F27.4°C 73.0°F22.8°C 76% 1.9 mph N3.1 kmh N 4.2 mph6.8 kmh 29.84 in1010.5 mb 0.00 in0.0 mm 0.00 in/hr0.0 mm/hr 0.00 in0.0 mm
01:40 AM 81.5°F27.5°C 72.8°F22.7°C 75% 1.0 mph W1.6 kmh W 3.0 mph4.8 kmh 29.84 in1010.5 mb 0.00 in0.0 mm 0.00 in/hr0.0 mm/hr 0.00 in0.0 mm
01:30 AM 81.7°F27.6°C 72.6°F22.6°C 74% 2.9 mph SW4.7 kmh SW 5.1 mph8.2 kmh 29.85 in1010.8 mb 0.00 in0.0 mm 0.00 in/hr0.0 mm/hr 0.00 in0.0 mm
01:20 AM 81.7°F27.6°C 72.6°F22.6°C 74% 3.7 mph W6.0 kmh W 7.1 mph11.4 kmh 29.85 in1010.8 mb 0.00 in0.0 mm 0.00 in/hr0.0 mm/hr 0.00 in0.0 mm
01:10 AM 81.8°F27.7°C 72.7°F22.6°C 74% 1.3 mph W2.1 kmh W 6.0 mph9.7 kmh 29.84 in1010.5 mb 0.00 in0.0 mm 0.00 in/hr0.0 mm/hr 0.00 in0.0 mm
01:00 AM 82.0°F27.8°C 72.9°F22.7°C 74% 2.5 mph S4.0 kmh S 4.2 mph6.8 kmh 29.85 in1010.8 mb 0.00 in0.0 mm 0.00 in/hr0.0 mm/hr 0.00 in0.0 mm
12:50 AM 82.2°F27.9°C 72.7°F22.6°C 73% 1.0 mph SW1.6 kmh SW 4.2 mph6.8 kmh 29.86 in1011.2 mb 0.00 in0.0 mm 0.00 in/hr0.0 mm/hr 0.00 in0.0 mm
12:40 AM 82.4°F28.0°C 72.9°F22.7°C 73% 1.8 mph NW2.9 kmh NW 4.2 mph6.8 kmh 29.86 in1011.2 mb 0.00 in0.0 mm 0.00 in/hr0.0 mm/hr 0.00 in0.0 mm
12:30 AM 82.6°F28.1°C 73.0°F22.8°C 73% 4.6 mph SW7.4 kmh SW 7.1 mph11.4 kmh 29.86 in1011.2 mb 0.00 in0.0 mm 0.00 in/hr0.0 mm/hr 0.00 in0.0 mm
12:20 AM 82.9°F28.3°C 73.0°F22.8°C 72% 2.0 mph SW3.2 kmh SW 5.1 mph8.2 kmh 29.86 in1011.2 mb 0.00 in0.0 mm 0.00 in/hr0.0 mm/hr 0.00 in0.0 mm
12:10 AM 83.1°F28.4°C 73.2°F22.9°C 72% 2.0 mph SW3.2 kmh SW 4.2 mph6.8 kmh 29.87 in1011.5 mb 0.00 in0.0 mm 0.00 in/hr0.0 mm/hr 0.00 in0.0 mm
12:00 AM 83.1°F28.4°C 73.2°F22.9°C 72% 3.6 mph W5.8 kmh W 6.0 mph9.7 kmh 29.87 in1011.5 mb 0.00 in0.0 mm 0.00 in/hr0.0 mm/hr 0.00 in0.0 mm